Time;durP1;ratioP1;P1;durP2;ratioP2;P2;SDS_P1;SDS_P2;PMS_P1;PMS_P2;Temp;Humidity;BMP_temperature;BMP_pressure;BME280_temperature;BME280_humidity;BME280_pressure;Samples;Min_cycle;Max_cycle;Signal;HPM_P1;HPM_P2
2023/12/15 00:00:24;;;;;;;10.02;5.53;;;;;;;;;;5030340;28;20049;-85
2023/12/15 00:02:51;;;;;;;11.07;5.75;;;;;;;;;;5029944;28;20474;-85
2023/12/15 00:05:18;;;;;;;9.52;5.50;;;;;;;;;;5028841;28;20053;-85
2023/12/15 00:07:44;;;;;;;8.18;5.13;;;;;;;;;;5041316;28;20041;-84
2023/12/15 00:10:12;;;;;;;10.30;5.72;;;;;;;;;;5029762;28;20045;-84
2023/12/15 00:12:38;;;;;;;10.52;5.65;;;;;;;;;;5030352;28;20125;-85
2023/12/15 00:15:05;;;;;;;12.10;5.55;;;;;;;;;;5010013;28;20081;-84
2023/12/15 00:17:32;;;;;;;11.75;5.85;;;;;;;;;;5023958;28;20049;-85
2023/12/15 00:19:59;;;;;;;11.20;6.53;;;;;;;;;;5029857;28;20530;-85
2023/12/15 00:22:26;;;;;;;11.27;5.75;;;;;;;;;;5046248;28;20418;-85
2023/12/15 00:24:53;;;;;;;13.70;5.75;;;;;;;;;;5044741;28;20076;-86
2023/12/15 00:27:19;;;;;;;10.82;5.65;;;;;;;;;;5013538;28;20061;-84
2023/12/15 00:29:46;;;;;;;10.55;5.68;;;;;;;;;;5046319;28;20115;-85
2023/12/15 00:32:13;;;;;;;14.60;6.35;;;;;;;;;;5046241;28;20078;-85
2023/12/15 00:34:39;;;;;;;12.27;5.88;;;;;;;;;;5045946;28;20085;-85
2023/12/15 00:37:06;;;;;;;12.45;6.13;;;;;;;;;;5027554;28;20123;-85
2023/12/15 00:39:36;;;;;;;11.80;5.57;;;;;;;;;;5034997;28;20069;-83
2023/12/15 00:42:04;;;;;;;15.52;6.38;;;;;;;;;;5019837;28;20080;-83
2023/12/15 00:44:32;;;;;;;13.55;6.13;;;;;;;;;;5019472;28;20088;-81
2023/12/15 00:47:00;;;;;;;11.18;6.28;;;;;;;;;;5018007;28;20423;-80
2023/12/15 00:49:27;;;;;;;11.80;6.53;;;;;;;;;;5054844;28;20083;-81
2023/12/15 00:51:54;;;;;;;12.13;6.32;;;;;;;;;;5054741;28;20571;-81
2023/12/15 00:54:20;;;;;;;13.73;7.22;;;;;;;;;;5037415;28;20056;-83
2023/12/15 00:56:47;;;;;;;14.93;6.38;;;;;;;;;;5040807;28;20133;-82
2023/12/15 00:59:14;;;;;;;14.63;6.95;;;;;;;;;;5038022;28;20084;-83
2023/12/15 01:01:40;;;;;;;14.40;7.53;;;;;;;;;;5051466;28;20132;-86
2023/12/15 01:04:07;;;;;;;15.77;7.43;;;;;;;;;;5047260;28;20491;-86
2023/12/15 01:06:33;;;;;;;14.23;6.28;;;;;;;;;;5043863;28;20093;-85
2023/12/15 01:09:00;;;;;;;10.95;5.93;;;;;;;;;;5011702;28;20060;-86
2023/12/15 01:11:27;;;;;;;13.90;7.07;;;;;;;;;;5030492;28;20124;-86
2023/12/15 01:13:53;;;;;;;13.25;6.15;;;;;;;;;;5047670;28;20100;-84
2023/12/15 01:16:20;;;;;;;13.60;6.80;;;;;;;;;;5049719;28;20041;-85
2023/12/15 01:18:46;;;;;;;15.50;6.38;;;;;;;;;;5050550;28;20053;-84
2023/12/15 01:21:13;;;;;;;13.57;5.75;;;;;;;;;;5055738;28;20456;-84
2023/12/15 01:23:40;;;;;;;11.90;5.95;;;;;;;;;;5056063;28;20073;-83
2023/12/15 01:26:07;;;;;;;12.45;5.90;;;;;;;;;;5047730;28;20091;-84
2023/12/15 01:28:34;;;;;;;14.13;6.97;;;;;;;;;;5034534;28;20053;-86
2023/12/15 01:31:01;;;;;;;12.30;6.05;;;;;;;;;;5033637;28;20053;-86
2023/12/15 01:33:28;;;;;;;12.77;6.38;;;;;;;;;;5034178;28;20080;-87
2023/12/15 01:35:55;;;;;;;12.48;6.00;;;;;;;;;;5015365;28;20060;-87
2023/12/15 01:38:22;;;;;;;13.88;6.03;;;;;;;;;;5029270;28;20114;-86
2023/12/15 01:40:49;;;;;;;13.48;6.65;;;;;;;;;;5038254;28;20053;-83
2023/12/15 01:43:16;;;;;;;14.90;7.35;;;;;;;;;;5058710;28;20075;-83
2023/12/15 01:45:42;;;;;;;14.80;7.55;;;;;;;;;;5054730;28;20136;-84
2023/12/15 01:48:09;;;;;;;14.95;7.28;;;;;;;;;;5021917;28;20080;-84
2023/12/15 01:50:36;;;;;;;17.13;7.72;;;;;;;;;;5057518;28;20515;-83
2023/12/15 01:53:02;;;;;;;14.07;7.53;;;;;;;;;;5040598;28;20109;-83
2023/12/15 01:55:29;;;;;;;14.30;5.90;;;;;;;;;;5054207;28;20063;-84
2023/12/15 01:57:56;;;;;;;13.30;6.35;;;;;;;;;;5037442;28;20119;-84
2023/12/15 02:00:23;;;;;;;12.30;6.05;;;;;;;;;;5054182;28;20137;-83
2023/12/15 02:02:50;;;;;;;13.93;6.32;;;;;;;;;;5018737;28;20061;-84
2023/12/15 02:05:16;;;;;;;14.20;6.15;;;;;;;;;;5032167;28;20107;-84
2023/12/15 02:07:43;;;;;;;13.15;6.07;;;;;;;;;;5030458;28;20083;-85
2023/12/15 02:10:10;;;;;;;9.57;5.32;;;;;;;;;;5048505;28;20076;-84
2023/12/15 02:12:36;;;;;;;12.57;6.30;;;;;;;;;;5049947;28;20064;-84
2023/12/15 02:15:03;;;;;;;10.95;5.88;;;;;;;;;;5009139;28;20045;-84
2023/12/15 02:17:30;;;;;;;12.95;6.15;;;;;;;;;;5033192;28;20495;-85
2023/12/15 02:19:56;;;;;;;13.40;6.20;;;;;;;;;;5032555;28;20144;-84
2023/12/15 02:22:25;;;;;;;9.88;5.38;;;;;;;;;;5049158;28;20053;-82
2023/12/15 02:24:52;;;;;;;13.13;6.95;;;;;;;;;;5016481;28;20069;-82
2023/12/15 02:27:18;;;;;;;11.52;6.22;;;;;;;;;;5018984;28;20092;-82
2023/12/15 02:29:45;;;;;;;13.32;5.88;;;;;;;;;;5050039;28;20057;-82
2023/12/15 02:32:12;;;;;;;11.32;5.57;;;;;;;;;;5048393;28;20092;-82
2023/12/15 02:34:38;;;;;;;11.93;5.50;;;;;;;;;;5032833;28;20136;-82
2023/12/15 02:37:05;;;;;;;13.23;6.45;;;;;;;;;;5049025;28;20046;-81
2023/12/15 02:39:32;;;;;;;11.70;6.25;;;;;;;;;;5024222;28;20049;-81
2023/12/15 02:41:59;;;;;;;11.52;6.40;;;;;;;;;;5035079;28;20061;-82
2023/12/15 02:44:25;;;;;;;9.38;5.50;;;;;;;;;;5052974;28;20050;-82
2023/12/15 02:46:52;;;;;;;12.95;6.25;;;;;;;;;;5031882;28;20103;-83
2023/12/15 02:49:19;;;;;;;10.45;5.95;;;;;;;;;;5046386;28;20483;-82
2023/12/15 02:51:45;;;;;;;13.23;6.13;;;;;;;;;;5016025;28;20133;-82
2023/12/15 02:54:12;;;;;;;11.50;5.85;;;;;;;;;;5033122;28;20080;-82
2023/12/15 02:56:38;;;;;;;13.82;6.47;;;;;;;;;;5033550;28;20061;-82
2023/12/15 02:59:05;;;;;;;12.07;6.50;;;;;;;;;;5033570;28;20052;-81
2023/12/15 03:01:32;;;;;;;11.50;6.60;;;;;;;;;;5034090;28;20431;-82
2023/12/15 03:03:59;;;;;;;11.73;5.80;;;;;;;;;;5017267;28;20053;-82
2023/12/15 03:06:25;;;;;;;12.60;6.22;;;;;;;;;;5000529;28;20099;-82
2023/12/15 03:08:52;;;;;;;11.13;6.30;;;;;;;;;;5033450;28;20404;-82
2023/12/15 03:11:18;;;;;;;10.95;5.32;;;;;;;;;;5000709;28;20478;-82
2023/12/15 03:13:45;;;;;;;13.70;7.35;;;;;;;;;;5016390;28;20563;-83
2023/12/15 03:16:12;;;;;;;13.70;6.07;;;;;;;;;;5032756;28;20069;-82
2023/12/15 03:18:38;;;;;;;11.43;5.63;;;;;;;;;;5034673;28;20060;-82
2023/12/15 03:21:05;;;;;;;12.30;6.85;;;;;;;;;;5033778;28;20049;-82
2023/12/15 03:23:32;;;;;;;9.45;5.50;;;;;;;;;;5033422;28;20752;-82
2023/12/15 03:25:58;;;;;;;8.77;5.43;;;;;;;;;;5017807;28;20065;-82
2023/12/15 03:28:25;;;;;;;11.13;5.60;;;;;;;;;;5033721;28;20423;-82
2023/12/15 03:30:52;;;;;;;11.75;5.60;;;;;;;;;;5017213;28;20132;-82
2023/12/15 03:33:18;;;;;;;11.27;6.15;;;;;;;;;;5016175;28;20053;-82
2023/12/15 03:35:45;;;;;;;12.43;6.32;;;;;;;;;;5017000;28;20072;-82
2023/12/15 03:38:12;;;;;;;9.63;5.55;;;;;;;;;;5033534;28;20087;-81
2023/12/15 03:40:39;;;;;;;9.63;5.68;;;;;;;;;;5016940;28;20107;-82
2023/12/15 03:43:05;;;;;;;8.45;5.10;;;;;;;;;;5032006;28;20141;-83
2023/12/15 03:45:32;;;;;;;9.70;5.22;;;;;;;;;;5029973;28;20495;-83
2023/12/15 03:47:59;;;;;;;12.60;6.63;;;;;;;;;;5030595;28;20061;-84
2023/12/15 03:50:25;;;;;;;10.57;5.95;;;;;;;;;;5030885;28;20057;-84
2023/12/15 03:52:52;;;;;;;10.73;5.75;;;;;;;;;;5014690;28;20096;-83
2023/12/15 03:55:19;;;;;;;8.65;4.90;;;;;;;;;;5032005;28;20085;-85
2023/12/15 03:57:46;;;;;;;12.80;5.63;;;;;;;;;;5031210;28;20085;-84
2023/12/15 04:00:12;;;;;;;10.77;5.40;;;;;;;;;;5014765;28;20053;-83
2023/12/15 04:02:39;;;;;;;8.60;4.93;;;;;;;;;;5013791;28;20151;-85
2023/12/15 04:05:06;;;;;;;10.20;6.25;;;;;;;;;;5012932;28;20084;-85
2023/12/15 04:07:33;;;;;;;9.15;6.00;;;;;;;;;;5013467;28;20090;-86
2023/12/15 04:10:00;;;;;;;11.05;5.57;;;;;;;;;;5029695;28;20057;-86
2023/12/15 04:12:27;;;;;;;9.02;4.75;;;;;;;;;;5013310;28;20107;-85
2023/12/15 04:14:54;;;;;;;11.05;5.63;;;;;;;;;;5029295;28;20055;-85
2023/12/15 04:17:20;;;;;;;8.30;5.25;;;;;;;;;;5029666;28;20053;-85
2023/12/15 04:19:47;;;;;;;9.60;5.55;;;;;;;;;;5014859;28;20054;-83
2023/12/15 04:22:14;;;;;;;8.93;5.45;;;;;;;;;;5029790;28;20503;-85
2023/12/15 04:24:41;;;;;;;11.07;5.38;;;;;;;;;;5030023;28;20507;-84
2023/12/15 04:27:07;;;;;;;6.60;4.65;;;;;;;;;;4998072;28;20515;-83
2023/12/15 04:29:34;;;;;;;9.35;5.43;;;;;;;;;;5014883;28;20057;-84
2023/12/15 04:32:00;;;;;;;9.25;5.25;;;;;;;;;;5015323;28;20045;-84
2023/12/15 04:34:27;;;;;;;8.68;5.15;;;;;;;;;;5032683;28;20049;-82
2023/12/15 04:36:53;;;;;;;7.40;5.22;;;;;;;;;;5032409;28;20129;-83
2023/12/15 04:39:20;;;;;;;10.05;6.10;;;;;;;;;;5029462;28;20479;-83
2023/12/15 04:41:47;;;;;;;10.25;5.15;;;;;;;;;;5013702;28;20100;-83
2023/12/15 04:44:13;;;;;;;9.65;5.50;;;;;;;;;;5014567;28;20096;-84
2023/12/15 04:46:41;;;;;;;9.25;5.93;;;;;;;;;;5030448;28;20466;-84
2023/12/15 04:49:07;;;;;;;8.98;5.95;;;;;;;;;;5030574;28;20056;-84
2023/12/15 04:51:34;;;;;;;9.10;4.80;;;;;;;;;;5034546;28;20053;-85
2023/12/15 04:54:01;;;;;;;8.00;5.25;;;;;;;;;;5019216;28;20117;-84
2023/12/15 04:56:27;;;;;;;7.88;5.07;;;;;;;;;;5021037;28;20516;-82
2023/12/15 04:58:57;;;;;;;9.52;5.13;;;;;;;;;;5020458;28;20512;-82
2023/12/15 05:01:25;;;;;;;8.52;4.97;;;;;;;;;;5047440;28;20478;-83
2023/12/15 05:03:52;;;;;;;9.15;6.00;;;;;;;;;;5029366;28;20057;-82
2023/12/15 05:06:20;;;;;;;10.05;6.25;;;;;;;;;;5053670;28;20727;-82
2023/12/15 05:08:47;;;;;;;10.57;6.15;;;;;;;;;;5035929;28;20063;-84
2023/12/15 05:11:14;;;;;;;7.55;5.10;;;;;;;;;;5011393;28;20127;-85
2023/12/15 05:13:41;;;;;;;7.93;4.70;;;;;;;;;;5018423;28;20089;-84
2023/12/15 05:16:08;;;;;;;7.70;4.65;;;;;;;;;;5035974;28;20132;-83
2023/12/15 05:18:34;;;;;;;7.57;4.93;;;;;;;;;;5054597;28;20479;-84
2023/12/15 05:21:02;;;;;;;6.75;4.38;;;;;;;;;;5032712;28;20779;-84
2023/12/15 05:23:29;;;;;;;6.68;5.15;;;;;;;;;;5022703;28;20140;-84
2023/12/15 05:25:56;;;;;;;9.07;5.55;;;;;;;;;;5031707;28;20396;-85
2023/12/15 05:28:22;;;;;;;10.32;7.07;;;;;;;;;;5019687;28;20452;-85
2023/12/15 05:30:49;;;;;;;10.93;6.15;;;;;;;;;;5023066;28;20104;-84
2023/12/15 05:33:16;;;;;;;8.73;6.03;;;;;;;;;;5025272;28;20133;-84
2023/12/15 05:35:43;;;;;;;7.75;5.43;;;;;;;;;;5049222;28;20159;-84
2023/12/15 05:38:09;;;;;;;8.88;5.60;;;;;;;;;;5032593;28;20132;-84
2023/12/15 05:40:36;;;;;;;9.65;6.43;;;;;;;;;;5026740;28;20045;-85
2023/12/15 05:43:02;;;;;;;8.20;5.13;;;;;;;;;;5037042;28;20561;-85
2023/12/15 05:45:29;;;;;;;10.00;5.32;;;;;;;;;;5034281;28;20426;-86
2023/12/15 05:47:59;;;;;;;8.70;5.05;;;;;;;;;;5014147;28;20762;-83
2023/12/15 05:50:26;;;;;;;6.18;4.43;;;;;;;;;;5038479;28;20049;-83
2023/12/15 05:52:53;;;;;;;8.70;4.85;;;;;;;;;;5010985;28;20171;-84
2023/12/15 05:55:19;;;;;;;8.43;4.35;;;;;;;;;;5021750;28;20060;-83
2023/12/15 05:57:46;;;;;;;10.00;5.85;;;;;;;;;;5043703;28;20121;-82
2023/12/15 06:00:16;;;;;;;6.75;4.45;;;;;;;;;;5009361;28;20060;-81
2023/12/15 06:02:42;;;;;;;6.30;4.78;;;;;;;;;;5027998;28;20161;-82
2023/12/15 06:05:09;;;;;;;8.75;4.40;;;;;;;;;;5023499;28;20075;-83
2023/12/15 06:07:36;;;;;;;7.82;5.53;;;;;;;;;;5029272;28;20068;-83
2023/12/15 06:10:03;;;;;;;8.32;5.15;;;;;;;;;;5049933;28;20132;-81
2023/12/15 06:12:30;;;;;;;9.60;5.43;;;;;;;;;;5056470;28;20053;-82
2023/12/15 06:14:56;;;;;;;10.02;5.40;;;;;;;;;;5028860;28;20088;-79
2023/12/15 06:17:23;;;;;;;8.73;5.07;;;;;;;;;;5026861;28;20128;-81
2023/12/15 06:19:54;;;;;;;9.18;5.90;;;;;;;;;;5027946;28;20053;-82
2023/12/15 06:22:21;;;;;;;6.50;4.85;;;;;;;;;;5040093;28;20053;-81
2023/12/15 06:24:47;;;;;;;7.38;6.03;;;;;;;;;;5033306;28;20053;-82
2023/12/15 06:27:14;;;;;;;8.18;5.57;;;;;;;;;;5019729;28;20096;-80
2023/12/15 06:29:41;;;;;;;8.20;4.63;;;;;;;;;;5026447;28;20053;-81
2023/12/15 06:32:10;;;;;;;7.93;5.43;;;;;;;;;;5042865;28;20045;-80
2023/12/15 06:34:40;;;;;;;8.27;5.28;;;;;;;;;;5011872;28;20053;-81
2023/12/15 06:37:06;;;;;;;7.97;5.90;;;;;;;;;;5042203;28;20092;-83
2023/12/15 06:39:33;;;;;;;8.35;6.10;;;;;;;;;;5029275;28;20050;-81
2023/12/15 06:42:02;;;;;;;7.50;5.53;;;;;;;;;;5016630;28;20480;-83
2023/12/15 06:44:29;;;;;;;9.13;5.88;;;;;;;;;;5052787;28;20470;-81
2023/12/15 06:46:56;;;;;;;8.85;5.43;;;;;;;;;;5052748;28;20053;-81
2023/12/15 06:49:30;;;;;;;9.73;6.25;;;;;;;;;;5043834;28;20460;-80
2023/12/15 06:51:58;;;;;;;7.78;5.32;;;;;;;;;;5015407;28;20046;-80
2023/12/15 06:54:24;;;;;;;8.30;4.88;;;;;;;;;;5018579;28;20088;-81
2023/12/15 06:56:51;;;;;;;8.70;5.55;;;;;;;;;;5036647;28;20125;-79
2023/12/15 06:59:18;;;;;;;8.15;5.00;;;;;;;;;;5035490;28;20068;-80
2023/12/15 07:01:44;;;;;;;7.80;5.90;;;;;;;;;;5036252;28;20057;-80
2023/12/15 07:04:11;;;;;;;9.45;5.20;;;;;;;;;;5036285;28;20061;-83
2023/12/15 07:06:37;;;;;;;9.93;5.80;;;;;;;;;;5039257;28;20048;-82
2023/12/15 07:09:04;;;;;;;10.55;6.60;;;;;;;;;;5051982;28;20045;-82
2023/12/15 07:11:31;;;;;;;8.73;6.50;;;;;;;;;;5055533;28;20136;-82
2023/12/15 07:13:57;;;;;;;10.68;7.10;;;;;;;;;;5054963;28;20053;-82
2023/12/15 07:16:24;;;;;;;12.05;5.22;;;;;;;;;;5054873;28;20064;-82
2023/12/15 07:18:50;;;;;;;10.32;6.65;;;;;;;;;;5022305;28;20466;-84
2023/12/15 07:21:17;;;;;;;10.25;6.80;;;;;;;;;;5033088;28;20069;-83
2023/12/15 07:23:44;;;;;;;8.90;5.97;;;;;;;;;;5056207;28;20096;-83
2023/12/15 07:26:10;;;;;;;9.75;6.78;;;;;;;;;;5057224;28;20053;-82
2023/12/15 07:28:37;;;;;;;9.70;5.88;;;;;;;;;;5059311;28;20093;-83
2023/12/15 07:31:04;;;;;;;8.85;6.10;;;;;;;;;;5043282;28;20084;-82
2023/12/15 07:33:30;;;;;;;8.05;5.93;;;;;;;;;;5056283;28;20049;-82
2023/12/15 07:35:57;;;;;;;9.10;5.70;;;;;;;;;;5056275;28;20116;-83
2023/12/15 07:38:24;;;;;;;9.75;5.78;;;;;;;;;;5052313;28;20051;-81
2023/12/15 07:40:54;;;;;;;6.88;5.22;;;;;;;;;;5026947;28;20045;-81
2023/12/15 07:43:21;;;;;;;13.95;6.57;;;;;;;;;;5028105;28;20083;-82
2023/12/15 07:45:47;;;;;;;9.70;5.85;;;;;;;;;;5022828;28;20057;-82
2023/12/15 07:48:14;;;;;;;7.63;5.03;;;;;;;;;;5038152;28;20128;-79
2023/12/15 07:50:40;;;;;;;8.20;5.43;;;;;;;;;;5024651;28;20088;-84
2023/12/15 07:53:07;;;;;;;8.80;5.35;;;;;;;;;;5039184;28;20053;-79
2023/12/15 07:55:34;;;;;;;9.80;5.95;;;;;;;;;;5048988;28;20452;-84
2023/12/15 07:58:00;;;;;;;9.77;6.05;;;;;;;;;;5036489;28;20575;-84
2023/12/15 08:00:27;;;;;;;9.07;6.00;;;;;;;;;;5062476;28;20136;-85
2023/12/15 08:02:53;;;;;;;8.15;5.57;;;;;;;;;;5060449;28;20080;-84
2023/12/15 08:05:20;;;;;;;8.63;5.70;;;;;;;;;;5042029;28;20049;-82
2023/12/15 08:07:47;;;;;;;12.88;7.70;;;;;;;;;;5027187;28;20064;-84
2023/12/15 08:10:13;;;;;;;18.88;6.05;;;;;;;;;;5032037;28;20083;-84
2023/12/15 08:12:40;;;;;;;8.65;5.65;;;;;;;;;;5032189;28;20084;-83
2023/12/15 08:15:07;;;;;;;10.20;6.05;;;;;;;;;;5023201;28;20136;-85
2023/12/15 08:17:34;;;;;;;8.32;5.82;;;;;;;;;;5027824;28;20087;-83
2023/12/15 08:20:02;;;;;;;9.50;6.15;;;;;;;;;;5020322;28;20163;-83
2023/12/15 08:22:29;;;;;;;10.52;6.05;;;;;;;;;;5021369;28;20062;-86
2023/12/15 08:24:56;;;;;;;9.00;5.88;;;;;;;;;;5021042;28;20049;-83
2023/12/15 08:27:23;;;;;;;11.90;6.43;;;;;;;;;;5053720;28;20113;-82
2023/12/15 08:29:50;;;;;;;8.68;5.15;;;;;;;;;;5034877;28;20095;-83
2023/12/15 08:32:16;;;;;;;10.07;7.20;;;;;;;;;;5057613;28;20335;-83
2023/12/15 08:34:49;;;;;;;10.88;6.30;;;;;;;;;;5042523;28;20056;-81
2023/12/15 08:37:16;;;;;;;13.27;6.28;;;;;;;;;;5038672;28;20695;-82
2023/12/15 08:39:43;;;;;;;9.50;6.25;;;;;;;;;;5052436;28;20089;-81
2023/12/15 08:42:09;;;;;;;7.32;5.82;;;;;;;;;;5052305;28;20053;-82
2023/12/15 08:44:36;;;;;;;11.82;6.82;;;;;;;;;;5036038;28;20108;-82
2023/12/15 08:47:02;;;;;;;11.07;7.40;;;;;;;;;;5017501;28;20485;-82
2023/12/15 08:49:29;;;;;;;11.98;6.72;;;;;;;;;;5023781;28;20507;-81
2023/12/15 08:51:56;;;;;;;12.05;7.13;;;;;;;;;;5047207;28;20060;-80
2023/12/15 08:54:22;;;;;;;9.93;7.00;;;;;;;;;;5035528;28;20045;-79
2023/12/15 08:56:49;;;;;;;10.02;6.10;;;;;;;;;;4999766;28;20084;-79
2023/12/15 08:59:16;;;;;;;10.60;6.18;;;;;;;;;;5042400;28;20502;-80
2023/12/15 09:01:43;;;;;;;9.00;5.70;;;;;;;;;;5038597;28;20053;-82
2023/12/15 09:04:10;;;;;;;10.20;6.35;;;;;;;;;;5041066;28;20132;-80
2023/12/15 09:06:36;;;;;;;10.70;6.63;;;;;;;;;;5042112;28;20081;-79
2023/12/15 09:09:10;;;;;;;9.95;6.32;;;;;;;;;;5039421;28;20517;-79
2023/12/15 09:11:38;;;;;;;14.13;6.82;;;;;;;;;;5037632;28;20148;-79
2023/12/15 09:14:05;;;;;;;14.70;8.52;;;;;;;;;;5040475;28;20072;-80
2023/12/15 09:16:32;;;;;;;12.63;6.95;;;;;;;;;;5019500;28;20046;-81
2023/12/15 09:18:58;;;;;;;15.60;8.35;;;;;;;;;;5030139;28;20411;-80
2023/12/15 09:21:26;;;;;;;12.65;8.70;;;;;;;;;;5018919;28;20051;-79
2023/12/15 09:23:56;;;;;;;10.82;7.55;;;;;;;;;;5022495;28;20422;-79
2023/12/15 09:26:23;;;;;;;10.02;6.30;;;;;;;;;;5023601;28;20045;-80
2023/12/15 09:28:50;;;;;;;7.95;6.13;;;;;;;;;;5038979;28;20061;-80
2023/12/15 09:31:17;;;;;;;11.18;6.13;;;;;;;;;;5041393;28;20089;-80
2023/12/15 09:33:43;;;;;;;8.77;5.60;;;;;;;;;;5035262;28;20045;-75
2023/12/15 09:36:10;;;;;;;8.65;5.88;;;;;;;;;;5038847;28;20056;-81
2023/12/15 09:38:37;;;;;;;9.77;5.85;;;;;;;;;;5010448;28;20810;-80
2023/12/15 09:41:04;;;;;;;7.70;5.45;;;;;;;;;;5021222;28;20100;-81
2023/12/15 09:43:31;;;;;;;7.22;4.95;;;;;;;;;;5024829;28;20529;-81
2023/12/15 09:45:58;;;;;;;7.63;5.55;;;;;;;;;;5041636;28;20057;-81
2023/12/15 09:48:28;;;;;;;9.20;5.43;;;;;;;;;;5001330;28;20049;-81
2023/12/15 09:50:55;;;;;;;8.80;4.97;;;;;;;;;;5036527;28;20049;-82
2023/12/15 09:53:22;;;;;;;8.18;5.90;;;;;;;;;;5046527;28;20052;-81
2023/12/15 09:55:50;;;;;;;7.78;6.10;;;;;;;;;;5028717;28;20057;-81
2023/12/15 09:58:17;;;;;;;9.15;5.97;;;;;;;;;;5029281;28;20550;-81
2023/12/15 10:00:44;;;;;;;8.15;5.45;;;;;;;;;;5023910;28;20064;-80
2023/12/15 10:03:11;;;;;;;7.65;5.22;;;;;;;;;;5009890;28;20061;-82
2023/12/15 10:05:38;;;;;;;8.27;5.63;;;;;;;;;;5046697;28;20053;-80
2023/12/15 10:08:04;;;;;;;9.73;6.22;;;;;;;;;;5043383;28;20053;-82
2023/12/15 10:10:31;;;;;;;9.27;6.00;;;;;;;;;;5045294;28;20069;-81
2023/12/15 10:12:58;;;;;;;9.63;6.00;;;;;;;;;;5021989;28;20081;-80
2023/12/15 10:15:24;;;;;;;8.13;5.57;;;;;;;;;;5019964;28;21051;-81
2023/12/15 10:17:55;;;;;;;7.65;5.55;;;;;;;;;;5045233;28;20106;-82
2023/12/15 10:20:22;;;;;;;8.07;5.70;;;;;;;;;;5034291;28;20049;-80
2023/12/15 10:22:59;;;;;;;11.02;6.15;;;;;;;;;;5044523;28;20558;-81
2023/12/15 10:25:25;;;;;;;9.60;6.03;;;;;;;;;;5000576;28;20053;-81
2023/12/15 10:27:52;;;;;;;7.93;5.60;;;;;;;;;;5026802;28;20084;-81
2023/12/15 10:30:19;;;;;;;8.73;5.57;;;;;;;;;;5027482;28;20049;-81
2023/12/15 10:32:46;;;;;;;8.45;6.22;;;;;;;;;;5029379;28;20045;-81
2023/12/15 10:35:12;;;;;;;9.18;5.97;;;;;;;;;;5032139;28;20046;-81
2023/12/15 10:37:41;;;;;;;8.30;5.95;;;;;;;;;;5020038;28;20138;-81
2023/12/15 10:40:09;;;;;;;9.15;5.78;;;;;;;;;;5025826;28;20053;-81
2023/12/15 10:42:35;;;;;;;8.55;5.68;;;;;;;;;;5007314;28;20049;-81
2023/12/15 10:45:06;;;;;;;9.85;6.38;;;;;;;;;;5034044;28;20065;-81
2023/12/15 10:47:32;;;;;;;9.15;6.15;;;;;;;;;;5008329;28;20095;-81
2023/12/15 10:50:03;;;;;;;8.90;5.75;;;;;;;;;;5040838;28;20068;-78
2023/12/15 10:52:35;;;;;;;14.40;7.95;;;;;;;;;;5022199;28;20045;-78
2023/12/15 10:55:03;;;;;;;12.63;7.13;;;;;;;;;;5005528;28;20502;-79
2023/12/15 10:57:31;;;;;;;8.38;5.70;;;;;;;;;;5015504;28;20087;-79
2023/12/15 10:59:57;;;;;;;11.82;6.88;;;;;;;;;;5021505;28;20491;-80
2023/12/15 11:02:24;;;;;;;9.65;6.00;;;;;;;;;;5013886;28;20479;-84
2023/12/15 11:04:51;;;;;;;9.13;5.75;;;;;;;;;;5025145;28;20053;-85
2023/12/15 11:07:21;;;;;;;7.55;5.15;;;;;;;;;;5058454;28;20045;-87
2023/12/15 11:09:48;;;;;;;8.43;5.45;;;;;;;;;;5022111;28;20099;-85
2023/12/15 11:12:22;;;;;;;11.00;5.95;;;;;;;;;;5044059;28;20153;-85
2023/12/15 11:14:48;;;;;;;;;;;;;;;;;;5020457;28;20045;-86
2023/12/15 11:17:15;;;;;;;6.65;4.00;;;;;;;;;;5021994;28;20027;-86
2023/12/15 11:19:42;;;;;;;6.70;4.50;;;;;;;;;;5020043;28;20057;-78
2023/12/15 11:22:09;;;;;;;7.30;4.43;;;;;;;;;;5023965;28;20093;-86
2023/12/15 11:24:35;;;;;;;8.38;4.47;;;;;;;;;;5024561;28;20041;-86
2023/12/15 11:27:02;;;;;;;5.90;4.63;;;;;;;;;;5024952;28;20081;-85
2023/12/15 11:29:33;;;;;;;8.40;4.60;;;;;;;;;;5028807;28;20542;-87
2023/12/15 11:32:19;;;;;;;6.28;4.55;;;;;;;;;;5043292;28;20045;-85
2023/12/15 11:34:46;;;;;;;7.40;5.05;;;;;;;;;;5034248;28;20053;-85
2023/12/15 11:37:14;;;;;;;5.82;4.65;;;;;;;;;;5020497;28;20083;-87
2023/12/15 11:39:40;;;;;;;5.30;3.83;;;;;;;;;;5023944;28;20117;-85
2023/12/15 11:42:07;;;;;;;6.30;3.72;;;;;;;;;;5023910;28;20549;-87
2023/12/15 11:44:33;;;;;;;5.15;3.80;;;;;;;;;;5024538;28;20076;-85
2023/12/15 11:47:00;;;;;;;4.57;3.25;;;;;;;;;;5039759;28;20059;-85
2023/12/15 11:49:27;;;;;;;4.63;3.00;;;;;;;;;;5041902;28;20088;-86
2023/12/15 11:51:53;;;;;;;4.35;2.80;;;;;;;;;;5038362;28;20135;-85
2023/12/15 11:54:20;;;;;;;3.70;2.85;;;;;;;;;;5022948;28;20072;-85
2023/12/15 11:56:47;;;;;;;4.60;3.53;;;;;;;;;;5003523;28;20110;-87
2023/12/15 11:59:14;;;;;;;5.25;3.58;;;;;;;;;;5026574;28;20514;-86
2023/12/15 12:01:40;;;;;;;3.30;2.90;;;;;;;;;;5043813;28;20107;-86
2023/12/15 12:04:16;;;;;;;5.15;3.25;;;;;;;;;;5037847;28;20053;-87
2023/12/15 12:06:44;;;;;;;4.18;3.00;;;;;;;;;;5024359;28;20392;-86
2023/12/15 12:09:11;;;;;;;6.05;3.42;;;;;;;;;;5025909;28;20211;-86
2023/12/15 12:11:39;;;;;;;7.15;3.78;;;;;;;;;;5041506;28;20057;-84
2023/12/15 12:14:07;;;;;;;9.82;3.85;;;;;;;;;;5037531;28;20391;-85
2023/12/15 12:16:34;;;;;;;3.92;3.13;;;;;;;;;;5012756;28;20140;-85
2023/12/15 12:19:01;;;;;;;4.38;3.15;;;;;;;;;;5040831;28;20072;-86
2023/12/15 12:21:28;;;;;;;3.85;2.85;;;;;;;;;;5037338;28;20041;-86
2023/12/15 12:23:55;;;;;;;5.18;3.22;;;;;;;;;;5026001;28;20049;-85
2023/12/15 12:26:22;;;;;;;4.00;2.63;;;;;;;;;;5043949;28;20068;-85
2023/12/15 12:28:50;;;;;;;5.20;3.47;;;;;;;;;;5043538;28;20052;-84
2023/12/15 12:31:18;;;;;;;3.30;2.60;;;;;;;;;;5040741;28;20073;-85
2023/12/15 12:33:44;;;;;;;3.20;2.90;;;;;;;;;;5033345;28;20428;-85
2023/12/15 12:36:14;;;;;;;8.32;2.80;;;;;;;;;;5037275;28;20203;-85
2023/12/15 12:38:42;;;;;;;3.17;2.47;;;;;;;;;;5036401;28;20083;-86
2023/12/15 12:41:09;;;;;;;4.53;2.67;;;;;;;;;;5037214;28;20071;-85
2023/12/15 12:43:35;;;;;;;6.20;2.83;;;;;;;;;;5038072;28;20045;-85
2023/12/15 12:46:04;;;;;;;5.60;3.90;;;;;;;;;;5014136;28;20140;-85
2023/12/15 12:48:30;;;;;;;4.30;2.83;;;;;;;;;;5036079;28;20064;-86
2023/12/15 12:50:57;;;;;;;3.10;2.80;;;;;;;;;;5036280;28;20560;-86
2023/12/15 12:53:25;;;;;;;3.40;2.03;;;;;;;;;;5040034;28;20049;-86
2023/12/15 12:55:52;;;;;;;8.45;2.20;;;;;;;;;;5031332;28;20111;-86
2023/12/15 12:58:19;;;;;;;4.72;2.33;;;;;;;;;;5032129;28;20215;-85
2023/12/15 13:00:51;;;;;;;1.98;1.80;;;;;;;;;;5041180;28;20048;-81
2023/12/15 13:03:18;;;;;;;2.67;2.08;;;;;;;;;;5033744;28;20435;-81
2023/12/15 13:05:45;;;;;;;4.28;1.60;;;;;;;;;;5038764;28;20084;-81
2023/12/15 13:08:12;;;;;;;4.03;1.73;;;;;;;;;;5051427;28;20453;-82
2023/12/15 13:10:39;;;;;;;5.53;1.80;;;;;;;;;;5040100;28;20053;-86
2023/12/15 13:13:06;;;;;;;2.03;1.70;;;;;;;;;;5043065;28;20073;-87
2023/12/15 13:15:33;;;;;;;3.15;1.80;;;;;;;;;;5041433;28;20136;-83
2023/12/15 13:17:59;;;;;;;3.92;2.10;;;;;;;;;;5038059;28;20128;-84
2023/12/15 13:20:26;;;;;;;7.22;3.65;;;;;;;;;;5040356;28;20048;-86
2023/12/15 13:22:53;;;;;;;3.67;2.40;;;;;;;;;;5032244;28;20046;-85
2023/12/15 13:25:20;;;;;;;6.03;1.98;;;;;;;;;;5041257;28;20077;-84
2023/12/15 13:27:48;;;;;;;4.43;2.50;;;;;;;;;;5042529;28;20128;-86
2023/12/15 13:30:18;;;;;;;3.00;1.98;;;;;;;;;;5010113;28;20056;-84
2023/12/15 13:32:45;;;;;;;6.28;2.65;;;;;;;;;;5041905;28;20045;-85
2023/12/15 13:35:12;;;;;;;4.43;2.45;;;;;;;;;;5032781;28;20053;-85
2023/12/15 13:37:39;;;;;;;5.57;2.20;;;;;;;;;;5050401;28;20602;-87
2023/12/15 13:40:06;;;;;;;6.13;2.70;;;;;;;;;;5051237;28;20088;-86
2023/12/15 13:42:33;;;;;;;3.72;2.22;;;;;;;;;;5026226;28;20148;-85
2023/12/15 13:44:59;;;;;;;5.18;2.28;;;;;;;;;;5044337;28;20140;-85
2023/12/15 13:47:26;;;;;;;4.20;2.58;;;;;;;;;;5058970;28;20107;-86
2023/12/15 13:49:53;;;;;;;3.83;2.75;;;;;;;;;;5045117;28;20053;-84
2023/12/15 13:52:20;;;;;;;2.53;2.28;;;;;;;;;;5041451;28;20053;-81
2023/12/15 13:54:46;;;;;;;3.63;1.80;;;;;;;;;;5047443;28;20153;-87
2023/12/15 13:57:13;;;;;;;3.08;1.92;;;;;;;;;;5044253;28;20052;-87
2023/12/15 13:59:39;;;;;;;2.45;1.90;;;;;;;;;;5044506;28;20685;-87
2023/12/15 14:02:08;;;;;;;2.78;1.60;;;;;;;;;;5003254;28;20405;-87
2023/12/15 14:04:34;;;;;;;1.50;1.30;;;;;;;;;;5041393;28;20049;-87
2023/12/15 14:07:04;;;;;;;3.83;1.73;;;;;;;;;;5038436;28;20195;-88
2023/12/15 14:09:35;;;;;;;2.00;1.80;;;;;;;;;;5043484;28;20117;-87
2023/12/15 14:15:01;;;;;;;2.42;1.55;;;;;;;;;;5040633;28;20088;-89
2023/12/15 14:17:28;;;;;;;2.03;1.20;;;;;;;;;;5140807;22;20049;-85
2023/12/15 14:19:55;;;;;;;2.83;1.85;;;;;;;;;;5038133;28;20041;-85
2023/12/15 14:22:22;;;;;;;2.63;1.80;;;;;;;;;;5041227;28;20067;-85
2023/12/15 14:24:49;;;;;;;4.85;1.92;;;;;;;;;;5043528;28;20535;-85
2023/12/15 14:27:16;;;;;;;3.80;2.08;;;;;;;;;;5037112;28;20118;-85
2023/12/15 14:29:43;;;;;;;3.95;1.95;;;;;;;;;;5017255;28;20049;-86
2023/12/15 14:32:12;;;;;;;6.85;2.25;;;;;;;;;;5047578;28;20144;-85
2023/12/15 14:34:39;;;;;;;4.38;2.03;;;;;;;;;;5031838;28;20065;-85
2023/12/15 14:37:06;;;;;;;4.00;2.22;;;;;;;;;;5025984;28;20163;-86
2023/12/15 14:39:37;;;;;;;3.28;2.35;;;;;;;;;;5047743;28;20414;-86